Updated10/16/2018 03:1010 
 

Nearby Airport METAR Reports

 

KVSF - Springfield, Vermont, USA
Distance from station: WSW 8mi, 12km
Updated: 2:54pm
Few Clouds
Few Clouds
 Wind from WSW
Wind: WSW 8 mph , 13 km/h
Temperature: 52°F , 11°C
Dew Point: 28°F , -2°C
Humidity: 41%
Barometer: 29.97 inHg , 1014.9 hPa
Clouds: Few Clouds
Visibility: 10 miles , 16 km
Cloud details: Few Clouds 6000 ft
2018/10/16 18:54 KVSF 161854Z AUTO 25007KT 10SM FEW060 11/M02 A2997 RMK AO2 RAB1756E42 SLP152 P0000 T01061017
KLEB - Lebanon, New Hampshire, USA
Distance from station: N 18mi, 29km
Updated: 2:53pm
Clear
Clear
 Wind from W
Wind: W 14 mph , 22 km/h
Temperature: 54°F , 12°C
Dew Point: 27°F , -3°C
Humidity: 35%
Barometer: 29.95 inHg , 1014.2 hPa
Clouds: Clear
Visibility: 10 miles , 16 km
2018/10/16 18:53 KLEB 161853Z 26012KT 10SM CLR 12/M03 A2995 RMK AO2 SLP141 T01221028
KRUT - Rutland State, Vermont, USA
Distance from station: WNW 31mi, 50km
Updated: 2:56pm
Few Clouds
Few Clouds
 Wind from W
Wind: W 10 mph , 17 km/h
Temperature: 50°F , 10°C
Wind Chill: 46°F , 8°C
Dew Point: 28°F , -2°C
Humidity: 43%
Barometer: 29.98 inHg , 1015.2 hPa
Clouds: Few Clouds
Visibility: 10 miles , 16 km
Cloud details: Few Clouds 5500 ft
2018/10/16 18:56 KRUT 161856Z AUTO 27009KT 10SM FEW055 10/M02 A2998 RMK AO2 SLP174 T01001017 $
 
KEEN - Keene/Dillant, New Hampshire, USA
Distance from station: S 34mi, 55km
Updated: 2:56pm
Mostly cloudy
Mostly cloudy
 Wind from SW
Wind: SW 13 mph , 20 km/h, Gust: 16 mph , 26 km/h
Temperature: 54°F , 12°C
Dew Point: 32°F , 0°C
Humidity: 44%
Barometer: 29.99 inHg , 1015.6 hPa
Clouds: Mostly cloudy
Visibility: 10 miles , 16 km
Cloud details: Mostly cloudy 5000 ft
2018/10/16 18:56 KEEN 161856Z AUTO 23011G14KT 190V250 10SM BKN050 12/00 A2999 RMK AO2 SLP177 T01170000 $
K1P1 - Plymouth, New Hampshire, USA
Distance from station: NE 42mi, 67km
Updated: 3:35pm
Partly cloudy
Partly cloudy
 Wind from WNW
Wind: WNW 10 mph , 17 km/h, Gust: 16 mph , 26 km/h
Temperature: 54°F , 12°C
Dew Point: 27°F , -3°C
Humidity: 35%
Barometer: 29.94 inHg , 1013.9 hPa
Clouds: Partly cloudy
Visibility: 10 miles , 16 km
Cloud details: Partly cloudy 6500 ft
2018/10/16 19:35 K1P1 161935Z AUTO 29009G14KT 10SM SCT065 12/M03 A2994 RMK AO2 T01181029
KAFN - Jaffrey, New Hampshire, USA
Distance from station: SSE 44mi, 70km
Updated: 2:52pm
Clear
Clear
 Wind from W
Wind: W 8 mph , 13 km/h
Temperature: 52°F , 11°C
Dew Point: 34°F , 1°C
Humidity: 50%
Barometer: 29.98 inHg , 1015.2 hPa
Clouds: Clear
Visibility: 10 miles , 16 km
2018/10/16 18:52 KAFN 161852Z AUTO 26007KT 10SM CLR 11/01 A2998 RMK AO2 SLP161 T01110006
 
KCON - Concord, New Hampshire, USA
Distance from station: ESE 45mi, 73km
Updated: 2:51pm
Clear
Clear
 Wind from WNW
Wind: WNW 13 mph , 20 km/h, Gust: 22 mph , 35 km/h
Temperature: 55°F , 13°C
Dew Point: 28°F , -2°C
Humidity: 36%
Barometer: 29.95 inHg , 1014.2 hPa
Clouds: Clear
Visibility: 10 miles , 16 km
2018/10/16 18:51 KCON 161851Z AUTO 30011G19KT 10SM CLR 13/M02 A2995 RMK AO2 SLP144 T01331022
KLCI - Laconia Muni, New Hampshire, USA
Distance from station: ENE 49mi, 80km
Updated: 2:56pm
Clear
Clear
 Wind from WSW
Wind: WSW 16 mph , 26 km/h, Gust: 24 mph , 39 km/h
Temperature: 54°F , 12°C
Dew Point: 28°F , -2°C
Humidity: 38%
Barometer: 29.93 inHg , 1013.5 hPa
Clouds: Clear
2018/10/16 18:56 KLCI 161856Z AUTO 25014G21KT CLR 12/M02 A2993 RMK AO2 SLP156 T01171022 PWINO $
KDDH - Bennington, Vermont, USA
Distance from station: SW 55mi, 89km
Updated: 2:54pm
Mostly cloudy
Mostly cloudy
 Wind from W
Wind: W 9 mph , 15 km/h, Gust: 18 mph , 30 km/h
Temperature: 50°F , 10°C
Wind Chill: 46°F , 8°C
Dew Point: 32°F , 0°C
Humidity: 50%
Barometer: 30.02 inHg , 1016.6 hPa
Clouds: Mostly cloudy
Visibility: 10 miles , 16 km
Cloud details: Mostly cloudy 4700 ft
2018/10/16 18:54 KDDH 161854Z AUTO 28008G16KT 250V330 10SM BKN047 10/00 A3002 RMK AO2 SLP168 T01000000
 
K6B0 - Middlebury, Vermont, USA
Distance from station: NW 56mi, 90km
Updated: 3:35pm
Overcast
Overcast
 Wind from WSW
Wind: WSW 5 mph , 7 km/h
Temperature: 52°F , 11°C
Dew Point: 30°F , -1°C
Humidity: 44%
Barometer: 29.97 inHg , 1014.9 hPa
Clouds: Overcast
Visibility: 10 miles , 16 km
Cloud details: Overcast 5500 ft
2018/10/16 19:35 K6B0 161935Z AUTO 24004KT 10SM OVC055 11/M01 A2997 RMK AO2 T01101011
KMHT - Manchester, New Hampshire, USA
Distance from station: ESE 56mi, 90km
Updated: 2:53pm
Few Clouds
Few Clouds
 Wind from W
Wind: W 9 mph , 15 km/h, Gust: 22 mph , 35 km/h
Temperature: 57°F , 14°C
Dew Point: 28°F , -2°C
Humidity: 33%
Barometer: 29.95 inHg , 1014.2 hPa
Clouds: Few Clouds
Visibility: 10 miles , 16 km
Cloud details: Few Clouds 5500 ft
Few Clouds 25000 ft
2018/10/16 18:53 KMHT 161853Z 27008G19KT 10SM FEW055 FEW250 14/M02 A2995 RMK AO2 SLP156 T01391017
KORE - Orange, Massachusetts, USA
Distance from station: S 56mi, 90km
Updated: 2:52pm
Few Clouds
Few Clouds
 Wind from WNW
Wind: WNW 15 mph , 24 km/h, Gust: 23 mph , 37 km/h
Temperature: 55°F , 13°C
Dew Point: 32°F , 0°C
Humidity: 41%
Barometer: 30.01 inHg , 1016.3 hPa
Clouds: Few Clouds
Visibility: 10 miles , 16 km
Cloud details: Few Clouds 5000 ft
2018/10/16 18:52 KORE 161852Z AUTO 30013G20KT 260V330 10SM FEW050 13/00 A3001 RMK AO2 SLP165 T01280000
 
KMPV - Montpelier/Barre, Vermont, USA
Distance from station: N 58mi, 93km
Updated: 2:51pm
Few Clouds
Few Clouds
 Wind from WNW
Wind: WNW 13 mph , 20 km/h
Temperature: 46°F , 8°C
Wind Chill: 40°F , 4°C
Dew Point: 28°F , -2°C
Humidity: 50%
Barometer: 29.99 inHg , 1015.6 hPa
Clouds: Few Clouds
Visibility: 10 miles , 16 km
Cloud details: Few Clouds 5000 ft
2018/10/16 18:51 KMPV 161851Z AUTO 29011KT 10SM FEW050 08/M02 A2999 RMK AO2 SLP163 T00781022
KASH - Nashua/Boire Fld, New Hampshire, USA
Distance from station: SE 59mi, 95km
Updated: 2:56pm
Few Clouds
Few Clouds
 Wind from varies
Wind: varies 6 mph , 9 km/h
Temperature: 55°F , 13°C
Dew Point: 30°F , -1°C
Humidity: 38%
Barometer: 29.98 inHg , 1015.2 hPa
Clouds: Few Clouds
Visibility: 10 miles , 16 km
Cloud details: Few Clouds 5000 ft
2018/10/16 18:56 KASH 161856Z VRB05KT 10SM FEW050 13/M01 A2998 RMK AO2 SLP163 T01331006
KAQW - North Adams, Massachusetts, USA
Distance from station: SW 62mi, 99km
Updated: 2:52pm
Light rain, Mostly cloudy
Light rain, Mostly cloudy
 Wind from W
Wind: W 13 mph , 20 km/h, Gust: 23 mph , 37 km/h
Temperature: 48°F , 9°C
Wind Chill: 43°F , 6°C
Dew Point: 32°F , 0°C
Humidity: 54%
Barometer: 30.02 inHg , 1016.6 hPa
Summary: Light rain
Clouds: Mostly cloudy
Visibility: 10 miles , 16 km
Cloud details: Mostly cloudy 4900 ft
2018/10/16 18:52 KAQW 161852Z AUTO 27011G20KT 10SM -RA BKN049 09/00 A3002 RMK AO2 SLP170 P0000 T00940000
 
KGFL - Glens Falls, New York, USA
Distance from station: W 63mi, 101km
Updated: 2:53pm
Few Clouds
Few Clouds
 Wind from SW
Wind: SW 7 mph , 11 km/h
Temperature: 50°F , 10°C
Wind Chill: 47°F , 8°C
Dew Point: 34°F , 1°C
Humidity: 54%
Barometer: 30.00 inHg , 1015.9 hPa
Clouds: Few Clouds
Visibility: 10 miles , 16 km
Cloud details: Few Clouds 5500 ft
2018/10/16 18:53 KGFL 161853Z AUTO 23006KT 10SM FEW055 10/01 A3000 RMK AO2 SLP163 T01000006
KFIT - Fitchburg, Massachusetts, USA
Distance from station: SSE 65mi, 105km
Updated: 2:52pm
Clear
Clear
 Wind from W
Wind: W 13 mph , 20 km/h, Gust: 22 mph , 35 km/h
Temperature: 55°F , 13°C
Dew Point: 32°F , 0°C
Humidity: 41%
Barometer: 29.99 inHg , 1015.6 hPa
Clouds: Clear
Visibility: 10 miles , 16 km
2018/10/16 18:52 KFIT 161852Z AUTO 28011G19KT 10SM CLR 13/00 A2999 RMK AO2 SLP158 T01280000
KDAW - Rochester, New Hampshire, USA
Distance from station: E 73mi, 118km
Updated: 2:51pm
Clear
Clear
 Wind from W
Wind: W 8 mph , 13 km/h
Temperature: 55°F , 13°C
Dew Point: 30°F , -1°C
Humidity: 38%
Barometer: 29.94 inHg , 1013.9 hPa
Clouds: Clear
Visibility: 10 miles , 16 km
2018/10/16 18:51 KDAW 161851Z AUTO 28007KT 180V320 10SM CLR 13/M01 A2994 RMK AO2 SLP135 T01331011
 
K1V4 - St. Johnsbury, Vermont, USA
Distance from station: NNE 74mi, 119km
Updated: 2:54pm

 
Temperature: 48°F , 9°C
Dew Point: 28°F , -2°C
Humidity: 46%
Barometer: 29.94 inHg , 1013.9 hPa
2018/10/16 18:54 K1V4 161854Z AUTO 09/M02 A2994 RMK AO1 SLP141 T00941022
KLWM - Lawrence, Massachusetts, USA
Distance from station: SE 77mi, 124km
Updated: 2:54pm
Clear
Clear
 Wind from W
Wind: W 10 mph , 17 km/h, Gust: 23 mph , 37 km/h
Temperature: 59°F , 15°C
Dew Point: 30°F , -1°C
Humidity: 34%
Barometer: 29.98 inHg , 1015.2 hPa
Clouds: Clear
Visibility: 10 miles , 16 km
2018/10/16 18:54 KLWM 161854Z 28009G20KT 10SM CLR 15/M01 A2998 RMK AO2 SLP153 T01501006

free counter page views since 4/29/2009